OMD258 KPVD-KSYR
Flight info
| Callsign | OMD258 |
|---|---|
| Flight time | 0h 55m |
| Altitude | 10000 |
| Route | PUT ALB SYR |
| Aircraft | A320/M-SDE3FGHIRWY/LB1 |
Departure
| Time | 2026-04-27 21:54 |
|---|---|
| Airport | Rhode Island T. F. Green International Airport (KPVD) |
Arrival
| Time | 2026-04-27 22:49 |
|---|---|
| Airport | Syracuse Hancock International Airport (KSYR) |
| Time | Latitude | Longitude | Altitude | Speed | Heading |
|---|---|---|---|---|---|
| 2026-04-27 21:27 | 41.73107 | -71.42508 | 52 ft | 0 kts | 178° |
| 2026-04-27 21:38 | 41.73121 | -71.42509 | 51 ft | 2 kts | 178° |
| 2026-04-27 21:38 | 41.73137 | -71.42511 | 53 ft | 2 kts | 190° |
| 2026-04-27 21:38 | 41.73153 | -71.42504 | 55 ft | 2 kts | 198° |
| 2026-04-27 21:38 | 41.73168 | -71.42493 | 55 ft | 2 kts | 221° |
| 2026-04-27 21:39 | 41.73178 | -71.42476 | 50 ft | 2 kts | 243° |
| 2026-04-27 21:39 | 41.73182 | -71.42463 | 52 ft | 0 kts | 262° |
| 2026-04-27 21:41 | 41.73181 | -71.42473 | 51 ft | 5 kts | 262° |
| 2026-04-27 21:42 | 41.73179 | -71.42521 | 56 ft | 4 kts | 266° |
| 2026-04-27 21:42 | 41.73178 | -71.42550 | 53 ft | 2 kts | 266° |
| 2026-04-27 21:42 | 41.73177 | -71.42560 | 55 ft | 0 kts | 266° |
| 2026-04-27 21:42 | 41.73176 | -71.42591 | 59 ft | 8 kts | 267° |
| 2026-04-27 21:43 | 41.73173 | -71.42655 | 56 ft | 7 kts | 267° |
| 2026-04-27 21:43 | 41.73168 | -71.42730 | 60 ft | 8 kts | 251° |
| 2026-04-27 21:43 | 41.73119 | -71.42781 | 59 ft | 12 kts | 212° |
| 2026-04-27 21:43 | 41.73051 | -71.42837 | 53 ft | 11 kts | 212° |
| 2026-04-27 21:44 | 41.72986 | -71.42891 | 61 ft | 11 kts | 212° |
| 2026-04-27 21:44 | 41.72922 | -71.42944 | 55 ft | 10 kts | 212° |
| 2026-04-27 21:44 | 41.72861 | -71.42996 | 58 ft | 11 kts | 212° |
| 2026-04-27 21:44 | 41.72791 | -71.43054 | 60 ft | 11 kts | 212° |
| 2026-04-27 21:45 | 41.72728 | -71.43106 | 57 ft | 11 kts | 212° |
| 2026-04-27 21:45 | 41.72663 | -71.43160 | 56 ft | 11 kts | 212° |
| 2026-04-27 21:45 | 41.72594 | -71.43218 | 58 ft | 12 kts | 212° |
| 2026-04-27 21:45 | 41.72524 | -71.43277 | 60 ft | 12 kts | 212° |
| 2026-04-27 21:46 | 41.72456 | -71.43335 | 57 ft | 12 kts | 212° |
| 2026-04-27 21:46 | 41.72388 | -71.43392 | 56 ft | 11 kts | 212° |
| 2026-04-27 21:46 | 41.72323 | -71.43447 | 55 ft | 11 kts | 212° |
| 2026-04-27 21:46 | 41.72263 | -71.43498 | 55 ft | 10 kts | 212° |
| 2026-04-27 21:47 | 41.72205 | -71.43547 | 55 ft | 10 kts | 212° |
| 2026-04-27 21:47 | 41.72151 | -71.43593 | 58 ft | 9 kts | 212° |
| 2026-04-27 21:47 | 41.72103 | -71.43633 | 59 ft | 8 kts | 212° |
| 2026-04-27 21:47 | 41.72061 | -71.43667 | 57 ft | 6 kts | 204° |
| 2026-04-27 21:48 | 41.72034 | -71.43667 | 54 ft | 6 kts | 167° |
| 2026-04-27 21:48 | 41.72011 | -71.43633 | 56 ft | 5 kts | 124° |
| 2026-04-27 21:48 | 41.71982 | -71.43577 | 55 ft | 9 kts | 124° |
| 2026-04-27 21:48 | 41.71939 | -71.43491 | 53 ft | 13 kts | 124° |
| 2026-04-27 21:49 | 41.71885 | -71.43375 | 55 ft | 16 kts | 120° |
| 2026-04-27 21:49 | 41.71807 | -71.43315 | 54 ft | 14 kts | 204° |
| 2026-04-27 21:49 | 41.71727 | -71.43378 | 52 ft | 13 kts | 211° |
| 2026-04-27 21:49 | 41.71658 | -71.43436 | 58 ft | 10 kts | 213° |
| 2026-04-27 21:50 | 41.71596 | -71.43489 | 62 ft | 12 kts | 213° |
| 2026-04-27 21:50 | 41.71525 | -71.43551 | 59 ft | 12 kts | 212° |
| 2026-04-27 21:50 | 41.71451 | -71.43613 | 60 ft | 12 kts | 212° |
| 2026-04-27 21:50 | 41.71382 | -71.43670 | 60 ft | 11 kts | 212° |
| 2026-04-27 21:51 | 41.71322 | -71.43721 | 63 ft | 10 kts | 212° |
| 2026-04-27 21:51 | 41.71259 | -71.43775 | 59 ft | 11 kts | 212° |
| 2026-04-27 21:51 | 41.71192 | -71.43831 | 60 ft | 11 kts | 212° |
| 2026-04-27 21:51 | 41.71136 | -71.43878 | 60 ft | 9 kts | 212° |
| 2026-04-27 21:52 | 41.71087 | -71.43885 | 61 ft | 6 kts | 145° |
| 2026-04-27 21:52 | 41.71084 | -71.43879 | 60 ft | 0 kts | 129° |
| 2026-04-27 21:52 | 41.71075 | -71.43863 | 61 ft | 7 kts | 128° |
| 2026-04-27 21:52 | 41.71056 | -71.43776 | 59 ft | 12 kts | 66° |
| 2026-04-27 21:53 | 41.71088 | -71.43743 | 62 ft | 0 kts | 30° |
| 2026-04-27 21:53 | 41.71101 | -71.43733 | 59 ft | 11 kts | 30° |
| 2026-04-27 21:53 | 41.71388 | -71.43494 | 65 ft | 86 kts | 32° |
| 2026-04-27 21:54 | 41.72084 | -71.42906 | 62 ft | 147 kts | 30° |
| 2026-04-27 21:54 | 41.72970 | -71.42158 | 691 ft | 148 kts | 35° |
| 2026-04-27 21:54 | 41.73931 | -71.41706 | 1491 ft | 154 kts | 1° |
| 2026-04-27 21:54 | 41.75047 | -71.41964 | 2047 ft | 174 kts | 348° |
| 2026-04-27 21:55 | 41.76293 | -71.42445 | 2431 ft | 199 kts | 347° |
| 2026-04-27 21:55 | 41.77695 | -71.43028 | 2914 ft | 223 kts | 346° |
| 2026-04-27 21:55 | 41.79260 | -71.43669 | 3518 ft | 245 kts | 346° |
| 2026-04-27 21:55 | 41.80939 | -71.44360 | 3910 ft | 256 kts | 346° |
| 2026-04-27 21:56 | 41.82659 | -71.45079 | 4607 ft | 259 kts | 345° |
| 2026-04-27 21:56 | 41.85369 | -71.48331 | 6759 ft | 277 kts | 303° |
| 2026-04-27 21:56 | 41.86290 | -71.50605 | 7790 ft | 278 kts | 303° |
| 2026-04-27 21:57 | 41.87208 | -71.52911 | 8755 ft | 282 kts | 303° |
| 2026-04-27 21:57 | 41.88139 | -71.55261 | 9611 ft | 288 kts | 303° |
| 2026-04-27 21:57 | 41.89072 | -71.57613 | 9899 ft | 289 kts | 302° |
| 2026-04-27 21:57 | 41.90016 | -71.59995 | 9995 ft | 289 kts | 302° |
| 2026-04-27 21:58 | 41.90962 | -71.62379 | 10004 ft | 289 kts | 302° |
| 2026-04-27 21:58 | 41.91907 | -71.64756 | 10003 ft | 288 kts | 302° |
| 2026-04-27 21:58 | 41.92853 | -71.67134 | 10007 ft | 288 kts | 303° |
| 2026-04-27 21:58 | 41.93800 | -71.69508 | 10006 ft | 288 kts | 303° |
| 2026-04-27 21:59 | 41.94745 | -71.71883 | 10008 ft | 288 kts | 303° |
| 2026-04-27 21:59 | 41.95692 | -71.74262 | 9994 ft | 288 kts | 302° |
| 2026-04-27 21:59 | 41.96637 | -71.76639 | 10001 ft | 289 kts | 302° |
| 2026-04-27 21:59 | 41.97585 | -71.79022 | 10003 ft | 289 kts | 302° |
| 2026-04-27 22:00 | 41.98535 | -71.81413 | 10002 ft | 289 kts | 302° |
| 2026-04-27 22:00 | 41.99468 | -71.83770 | 10004 ft | 289 kts | 301° |
| 2026-04-27 22:00 | 42.00278 | -71.86262 | 10003 ft | 291 kts | 296° |
| 2026-04-27 22:00 | 42.01021 | -71.88801 | 10004 ft | 292 kts | 295° |
| 2026-04-27 22:01 | 42.01742 | -71.91361 | 9999 ft | 292 kts | 294° |
| 2026-04-27 22:01 | 42.02457 | -71.93925 | 9999 ft | 292 kts | 294° |
| 2026-04-27 22:01 | 42.03173 | -71.96488 | 10003 ft | 292 kts | 294° |
| 2026-04-27 22:01 | 42.03880 | -71.99005 | 10000 ft | 292 kts | 294° |
| 2026-04-27 22:02 | 42.04603 | -72.01568 | 10000 ft | 292 kts | 294° |
| 2026-04-27 22:02 | 42.05326 | -72.04125 | 10001 ft | 292 kts | 294° |
| 2026-04-27 22:02 | 42.06049 | -72.06680 | 10001 ft | 292 kts | 294° |
| 2026-04-27 22:02 | 42.06770 | -72.09235 | 10002 ft | 292 kts | 294° |
| 2026-04-27 22:03 | 42.07492 | -72.11794 | 9987 ft | 292 kts | 294° |
| 2026-04-27 22:03 | 42.08211 | -72.14350 | 9988 ft | 292 kts | 294° |
| 2026-04-27 22:03 | 42.08929 | -72.16906 | 9987 ft | 292 kts | 294° |
| 2026-04-27 22:03 | 42.09638 | -72.19430 | 9987 ft | 292 kts | 294° |
| 2026-04-27 22:04 | 42.10358 | -72.21992 | 9989 ft | 292 kts | 294° |
| 2026-04-27 22:04 | 42.11072 | -72.24542 | 9988 ft | 292 kts | 294° |
| 2026-04-27 22:04 | 42.11788 | -72.27106 | 9961 ft | 292 kts | 294° |
| 2026-04-27 22:04 | 42.12504 | -72.29666 | 9964 ft | 292 kts | 294° |
| 2026-04-27 22:05 | 42.13217 | -72.32221 | 9969 ft | 292 kts | 294° |
| 2026-04-27 22:05 | 42.13934 | -72.34784 | 9969 ft | 292 kts | 294° |
| 2026-04-27 22:05 | 42.14651 | -72.37344 | 9968 ft | 291 kts | 294° |
| 2026-04-27 22:05 | 42.15365 | -72.39900 | 9960 ft | 291 kts | 294° |
| 2026-04-27 22:06 | 42.16068 | -72.42424 | 9961 ft | 291 kts | 294° |
| 2026-04-27 22:06 | 42.16778 | -72.44983 | 9962 ft | 291 kts | 294° |
| 2026-04-27 22:06 | 42.17487 | -72.47545 | 9963 ft | 292 kts | 293° |
| 2026-04-27 22:06 | 42.18198 | -72.50111 | 9965 ft | 292 kts | 293° |
| 2026-04-27 22:07 | 42.18907 | -72.52676 | 9948 ft | 292 kts | 293° |
| 2026-04-27 22:07 | 42.19615 | -72.55238 | 9949 ft | 292 kts | 293° |
| 2026-04-27 22:07 | 42.20323 | -72.57804 | 9949 ft | 292 kts | 293° |
| 2026-04-27 22:07 | 42.21035 | -72.60378 | 9942 ft | 292 kts | 293° |
| 2026-04-27 22:08 | 42.21746 | -72.62946 | 9947 ft | 292 kts | 293° |
| 2026-04-27 22:08 | 42.22454 | -72.65508 | 9949 ft | 291 kts | 293° |
| 2026-04-27 22:08 | 42.23151 | -72.68036 | 9950 ft | 291 kts | 293° |
| 2026-04-27 22:08 | 42.23857 | -72.70597 | 9952 ft | 291 kts | 293° |
| 2026-04-27 22:09 | 42.24561 | -72.73154 | 9952 ft | 291 kts | 293° |
| 2026-04-27 22:09 | 42.25269 | -72.75722 | 9954 ft | 291 kts | 293° |
| 2026-04-27 22:09 | 42.25970 | -72.78283 | 9953 ft | 291 kts | 293° |
| 2026-04-27 22:09 | 42.26672 | -72.80851 | 9954 ft | 291 kts | 292° |
| 2026-04-27 22:10 | 42.27373 | -72.83414 | 9952 ft | 291 kts | 292° |
| 2026-04-27 22:10 | 42.27837 | -72.85114 | 9952 ft | 291 kts | 292° |
| 2026-04-27 22:10 | 42.28775 | -72.88545 | 9954 ft | 291 kts | 292° |
| 2026-04-27 22:10 | 42.29479 | -72.91114 | 9954 ft | 291 kts | 292° |
| 2026-04-27 22:11 | 42.30181 | -72.93679 | 9955 ft | 291 kts | 292° |
| 2026-04-27 22:11 | 42.30881 | -72.96245 | 9939 ft | 291 kts | 292° |
| 2026-04-27 22:11 | 42.31573 | -72.98788 | 9940 ft | 292 kts | 292° |
| 2026-04-27 22:11 | 42.32271 | -73.01361 | 9936 ft | 292 kts | 292° |
| 2026-04-27 22:12 | 42.32970 | -73.03940 | 9936 ft | 292 kts | 292° |
| 2026-04-27 22:12 | 42.33672 | -73.06522 | 9937 ft | 293 kts | 292° |
| 2026-04-27 22:12 | 42.34377 | -73.09117 | 9923 ft | 293 kts | 292° |
| 2026-04-27 22:12 | 42.35079 | -73.11710 | 9925 ft | 293 kts | 292° |
| 2026-04-27 22:13 | 42.35777 | -73.14297 | 9942 ft | 293 kts | 292° |
| 2026-04-27 22:13 | 42.36477 | -73.16888 | 9944 ft | 293 kts | 292° |
| 2026-04-27 22:13 | 42.37175 | -73.19478 | 9946 ft | 293 kts | 292° |
| 2026-04-27 22:13 | 42.37875 | -73.22079 | 9946 ft | 294 kts | 292° |
| 2026-04-27 22:14 | 42.38566 | -73.24649 | 9948 ft | 293 kts | 292° |
| 2026-04-27 22:14 | 42.39264 | -73.27242 | 9950 ft | 293 kts | 292° |
| 2026-04-27 22:14 | 42.39964 | -73.29838 | 9949 ft | 293 kts | 292° |
| 2026-04-27 22:14 | 42.40661 | -73.32433 | 9945 ft | 293 kts | 291° |
| 2026-04-27 22:15 | 42.41355 | -73.35023 | 9950 ft | 293 kts | 291° |
| 2026-04-27 22:15 | 42.42046 | -73.37611 | 9954 ft | 293 kts | 291° |
| 2026-04-27 22:15 | 42.42740 | -73.40212 | 9955 ft | 292 kts | 291° |
| 2026-04-27 22:15 | 42.43433 | -73.42800 | 9954 ft | 293 kts | 291° |
| 2026-04-27 22:16 | 42.44127 | -73.45390 | 9956 ft | 293 kts | 291° |
| 2026-04-27 22:16 | 42.44820 | -73.47978 | 9951 ft | 292 kts | 291° |
| 2026-04-27 22:16 | 42.45511 | -73.50568 | 9954 ft | 292 kts | 291° |
| 2026-04-27 22:16 | 42.46202 | -73.53160 | 9954 ft | 292 kts | 291° |
| 2026-04-27 22:17 | 42.46891 | -73.55749 | 9953 ft | 292 kts | 291° |
| 2026-04-27 22:17 | 42.47575 | -73.58314 | 9952 ft | 292 kts | 291° |
| 2026-04-27 22:17 | 42.48266 | -73.60910 | 9951 ft | 292 kts | 291° |
| 2026-04-27 22:17 | 42.48953 | -73.63500 | 9947 ft | 292 kts | 291° |
| 2026-04-27 22:18 | 42.49638 | -73.66097 | 9940 ft | 292 kts | 290° |
| 2026-04-27 22:18 | 42.50321 | -73.68685 | 9943 ft | 291 kts | 291° |
| 2026-04-27 22:18 | 42.51002 | -73.71270 | 9947 ft | 291 kts | 291° |
| 2026-04-27 22:18 | 42.51683 | -73.73858 | 9952 ft | 291 kts | 291° |
| 2026-04-27 22:19 | 42.52354 | -73.76408 | 9954 ft | 291 kts | 291° |
| 2026-04-27 22:19 | 42.53036 | -73.78993 | 9954 ft | 291 kts | 291° |
| 2026-04-27 22:19 | 42.53719 | -73.81577 | 9954 ft | 291 kts | 291° |
| 2026-04-27 22:19 | 42.54398 | -73.84160 | 9956 ft | 290 kts | 290° |
| 2026-04-27 22:20 | 42.55077 | -73.86747 | 9961 ft | 290 kts | 290° |
| 2026-04-27 22:20 | 42.55752 | -73.89326 | 9956 ft | 290 kts | 290° |
| 2026-04-27 22:20 | 42.56427 | -73.91909 | 9959 ft | 290 kts | 290° |
| 2026-04-27 22:20 | 42.57103 | -73.94494 | 9967 ft | 290 kts | 290° |
| 2026-04-27 22:21 | 42.57780 | -73.97077 | 9960 ft | 290 kts | 290° |
| 2026-04-27 22:21 | 42.58455 | -73.99658 | 9962 ft | 290 kts | 291° |
| 2026-04-27 22:21 | 42.59119 | -74.02208 | 9955 ft | 290 kts | 290° |
| 2026-04-27 22:21 | 42.59796 | -74.04809 | 9958 ft | 291 kts | 291° |
| 2026-04-27 22:22 | 42.60469 | -74.07395 | 9958 ft | 291 kts | 291° |
| 2026-04-27 22:22 | 42.61142 | -74.09989 | 9969 ft | 291 kts | 290° |
| 2026-04-27 22:22 | 42.61817 | -74.12589 | 9970 ft | 291 kts | 290° |
| 2026-04-27 22:22 | 42.62493 | -74.15185 | 9970 ft | 291 kts | 290° |
| 2026-04-27 22:23 | 42.63168 | -74.17773 | 9975 ft | 291 kts | 291° |
| 2026-04-27 22:23 | 42.63845 | -74.20369 | 9970 ft | 291 kts | 290° |
| 2026-04-27 22:23 | 42.64517 | -74.22966 | 9971 ft | 291 kts | 290° |
| 2026-04-27 22:23 | 42.65178 | -74.25537 | 9977 ft | 291 kts | 290° |
| 2026-04-27 22:24 | 42.65846 | -74.28140 | 9982 ft | 291 kts | 290° |
| 2026-04-27 22:24 | 42.66514 | -74.30739 | 9975 ft | 291 kts | 290° |
| 2026-04-27 22:24 | 42.67183 | -74.33336 | 9979 ft | 291 kts | 290° |
| 2026-04-27 22:24 | 42.67850 | -74.35933 | 9974 ft | 291 kts | 290° |
| 2026-04-27 22:25 | 42.68516 | -74.38528 | 9971 ft | 291 kts | 290° |
| 2026-04-27 22:25 | 42.69182 | -74.41122 | 9974 ft | 290 kts | 290° |
| 2026-04-27 22:25 | 42.69847 | -74.43719 | 9978 ft | 290 kts | 290° |
| 2026-04-27 22:25 | 42.70509 | -74.46307 | 9977 ft | 290 kts | 290° |
| 2026-04-27 22:26 | 42.71173 | -74.48903 | 9974 ft | 290 kts | 290° |
| 2026-04-27 22:26 | 42.71828 | -74.51465 | 9973 ft | 290 kts | 290° |
| 2026-04-27 22:26 | 42.72491 | -74.54051 | 9968 ft | 290 kts | 290° |
| 2026-04-27 22:26 | 42.73154 | -74.56651 | 9973 ft | 290 kts | 290° |
| 2026-04-27 22:27 | 42.73815 | -74.59246 | 9970 ft | 290 kts | 290° |
| 2026-04-27 22:27 | 42.74475 | -74.61844 | 9978 ft | 290 kts | 289° |
| 2026-04-27 22:27 | 42.75134 | -74.64440 | 9974 ft | 290 kts | 290° |
| 2026-04-27 22:27 | 42.75794 | -74.67041 | 9966 ft | 290 kts | 290° |
| 2026-04-27 22:28 | 42.76445 | -74.69603 | 9973 ft | 290 kts | 290° |
| 2026-04-27 22:28 | 42.77104 | -74.72199 | 9963 ft | 290 kts | 290° |
| 2026-04-27 22:28 | 42.77760 | -74.74790 | 9965 ft | 290 kts | 290° |
| 2026-04-27 22:28 | 42.78415 | -74.77387 | 9966 ft | 290 kts | 289° |
| 2026-04-27 22:29 | 42.79069 | -74.79981 | 9956 ft | 290 kts | 289° |
| 2026-04-27 22:29 | 42.79722 | -74.82577 | 9964 ft | 290 kts | 289° |
| 2026-04-27 22:29 | 42.80376 | -74.85173 | 9965 ft | 290 kts | 290° |
| 2026-04-27 22:29 | 42.81031 | -74.87775 | 9960 ft | 290 kts | 290° |
| 2026-04-27 22:30 | 42.81676 | -74.90345 | 9961 ft | 290 kts | 289° |
| 2026-04-27 22:30 | 42.82329 | -74.92940 | 9966 ft | 290 kts | 289° |
| 2026-04-27 22:30 | 42.82983 | -74.95542 | 9968 ft | 290 kts | 289° |
| 2026-04-27 22:30 | 42.83637 | -74.98147 | 9961 ft | 290 kts | 290° |
| 2026-04-27 22:31 | 42.84290 | -75.00752 | 9969 ft | 290 kts | 289° |
| 2026-04-27 22:31 | 42.84943 | -75.03355 | 9967 ft | 290 kts | 289° |
| 2026-04-27 22:31 | 42.85524 | -75.05996 | 9977 ft | 290 kts | 281° |
| 2026-04-27 22:31 | 42.85829 | -75.08707 | 9746 ft | 288 kts | 278° |
| 2026-04-27 22:32 | 42.86001 | -75.10498 | 9484 ft | 287 kts | 277° |
| 2026-04-27 22:32 | 42.86263 | -75.13194 | 9091 ft | 286 kts | 277° |
| 2026-04-27 22:32 | 42.86534 | -75.15880 | 8701 ft | 285 kts | 277° |
| 2026-04-27 22:32 | 42.86814 | -75.18552 | 8317 ft | 284 kts | 277° |
| 2026-04-27 22:33 | 42.87102 | -75.21211 | 7936 ft | 283 kts | 277° |
| 2026-04-27 22:33 | 42.87390 | -75.23859 | 7560 ft | 281 kts | 277° |
| 2026-04-27 22:33 | 42.87678 | -75.26459 | 7193 ft | 280 kts | 277° |
| 2026-04-27 22:33 | 42.87979 | -75.29074 | 6817 ft | 279 kts | 277° |
| 2026-04-27 22:34 | 42.88297 | -75.31679 | 6448 ft | 278 kts | 278° |
| 2026-04-27 22:34 | 42.88624 | -75.34305 | 6058 ft | 278 kts | 277° |
| 2026-04-27 22:34 | 42.88950 | -75.36865 | 5920 ft | 278 kts | 278° |
| 2026-04-27 22:34 | 42.89280 | -75.39472 | 5944 ft | 279 kts | 278° |
| 2026-04-27 22:35 | 42.89597 | -75.42081 | 5951 ft | 279 kts | 278° |
| 2026-04-27 22:35 | 42.89917 | -75.44691 | 5950 ft | 279 kts | 277° |
| 2026-04-27 22:35 | 42.90248 | -75.47301 | 5949 ft | 280 kts | 278° |
| 2026-04-27 22:35 | 42.90578 | -75.49924 | 5942 ft | 279 kts | 278° |
| 2026-04-27 22:36 | 42.90908 | -75.52533 | 5941 ft | 278 kts | 278° |
| 2026-04-27 22:36 | 42.91230 | -75.55146 | 5942 ft | 279 kts | 277° |
| 2026-04-27 22:36 | 42.91559 | -75.57755 | 5943 ft | 280 kts | 278° |
| 2026-04-27 22:36 | 42.91888 | -75.60376 | 5942 ft | 279 kts | 276° |
| 2026-04-27 22:37 | 42.91991 | -75.62977 | 5945 ft | 277 kts | 268° |
| 2026-04-27 22:37 | 42.91992 | -75.65605 | 5940 ft | 277 kts | 268° |
| 2026-04-27 22:37 | 42.91989 | -75.66763 | 5940 ft | 277 kts | 268° |
| 2026-04-27 22:37 | 42.91982 | -75.68511 | 5940 ft | 277 kts | 268° |
| 2026-04-27 22:38 | 42.91967 | -75.71139 | 5939 ft | 276 kts | 268° |
| 2026-04-27 22:38 | 42.91954 | -75.73771 | 5940 ft | 277 kts | 268° |
| 2026-04-27 22:38 | 42.91946 | -75.76408 | 5940 ft | 278 kts | 268° |
| 2026-04-27 22:38 | 42.91931 | -75.79050 | 5935 ft | 278 kts | 267° |
| 2026-04-27 22:39 | 42.91935 | -75.81661 | 5933 ft | 278 kts | 268° |
| 2026-04-27 22:39 | 42.91948 | -75.84296 | 5930 ft | 278 kts | 268° |
| 2026-04-27 22:39 | 42.91952 | -75.86926 | 5932 ft | 277 kts | 268° |
| 2026-04-27 22:39 | 42.91960 | -75.89569 | 5933 ft | 278 kts | 268° |
| 2026-04-27 22:40 | 42.91961 | -75.92205 | 5935 ft | 277 kts | 268° |
| 2026-04-27 22:40 | 42.91963 | -75.94833 | 5914 ft | 277 kts | 268° |
| 2026-04-27 22:40 | 42.91964 | -75.97461 | 5913 ft | 277 kts | 268° |
| 2026-04-27 22:40 | 42.91974 | -76.00097 | 5913 ft | 276 kts | 268° |
| 2026-04-27 22:41 | 42.91981 | -76.02723 | 5912 ft | 277 kts | 268° |
| 2026-04-27 22:41 | 42.91989 | -76.05354 | 5911 ft | 277 kts | 268° |
| 2026-04-27 22:41 | 42.92001 | -76.07991 | 5911 ft | 277 kts | 268° |
| 2026-04-27 22:41 | 42.92005 | -76.10615 | 5908 ft | 277 kts | 268° |
| 2026-04-27 22:42 | 42.92009 | -76.13242 | 5908 ft | 276 kts | 268° |
| 2026-04-27 22:42 | 42.92011 | -76.15831 | 5912 ft | 276 kts | 268° |
| 2026-04-27 22:42 | 42.92013 | -76.18373 | 5904 ft | 258 kts | 268° |
| 2026-04-27 22:42 | 42.92023 | -76.20763 | 5677 ft | 249 kts | 268° |
| 2026-04-27 22:43 | 42.92047 | -76.23114 | 5389 ft | 246 kts | 269° |
| 2026-04-27 22:43 | 42.92062 | -76.25432 | 5128 ft | 242 kts | 268° |
| 2026-04-27 22:43 | 42.92206 | -76.27678 | 4978 ft | 236 kts | 285° |
| 2026-04-27 22:43 | 42.93082 | -76.29525 | 4817 ft | 231 kts | 320° |
| 2026-04-27 22:44 | 42.94500 | -76.30408 | 4683 ft | 221 kts | 351° |
| 2026-04-27 22:44 | 42.96001 | -76.30641 | 4559 ft | 213 kts | 357° |
| 2026-04-27 22:44 | 42.97448 | -76.30773 | 4440 ft | 204 kts | 358° |
| 2026-04-27 22:44 | 42.98852 | -76.30881 | 4144 ft | 202 kts | 358° |
| 2026-04-27 22:45 | 43.00253 | -76.30977 | 3821 ft | 201 kts | 358° |
| 2026-04-27 22:45 | 43.01631 | -76.30945 | 3520 ft | 198 kts | 16° |
| 2026-04-27 22:45 | 43.02839 | -76.30133 | 3244 ft | 192 kts | 36° |
| 2026-04-27 22:45 | 43.03939 | -76.29108 | 2913 ft | 191 kts | 39° |
| 2026-04-27 22:46 | 43.04855 | -76.27838 | 2574 ft | 187 kts | 55° |
| 2026-04-27 22:46 | 43.05620 | -76.26404 | 2237 ft | 187 kts | 58° |
| 2026-04-27 22:46 | 43.06252 | -76.24898 | 2069 ft | 177 kts | 68° |
| 2026-04-27 22:46 | 43.06711 | -76.23356 | 1855 ft | 174 kts | 71° |
| 2026-04-27 22:47 | 43.07288 | -76.21958 | 1785 ft | 161 kts | 57° |
| 2026-04-27 22:47 | 43.07953 | -76.20841 | 1847 ft | 145 kts | 51° |
| 2026-04-27 22:47 | 43.08620 | -76.19837 | 1760 ft | 139 kts | 52° |
| 2026-04-27 22:47 | 43.09253 | -76.18843 | 1631 ft | 138 kts | 53° |
| 2026-04-27 22:48 | 43.09822 | -76.17787 | 1406 ft | 136 kts | 62° |
| 2026-04-27 22:48 | 43.10240 | -76.16640 | 1195 ft | 135 kts | 69° |
| 2026-04-27 22:48 | 43.10561 | -76.15457 | 969 ft | 133 kts | 73° |
| 2026-04-27 22:48 | 43.10753 | -76.14214 | 699 ft | 130 kts | 84° |
| 2026-04-27 22:49 | 43.10809 | -76.12996 | 519 ft | 129 kts | 88° |
| 2026-04-27 22:49 | 43.10849 | -76.11787 | 428 ft | 119 kts | 88° |
| 2026-04-27 22:49 | 43.10878 | -76.10872 | 430 ft | 72 kts | 88° |
| 2026-04-27 22:49 | 43.10895 | -76.10374 | 420 ft | 44 kts | 88° |
| 2026-04-27 22:50 | 43.10909 | -76.09987 | 418 ft | 31 kts | 87° |
| 2026-04-27 22:50 | 43.10942 | -76.09854 | 410 ft | 10 kts | 354° |
| 2026-04-27 22:50 | 43.10991 | -76.09918 | 417 ft | 10 kts | 313° |
| 2026-04-27 22:50 | 43.11011 | -76.09948 | 406 ft | 0 kts | 313° |
| 2026-04-27 22:52 | 43.11030 | -76.09999 | 418 ft | 13 kts | 278° |
| 2026-04-27 22:52 | 43.11026 | -76.10130 | 419 ft | 13 kts | 266° |
| 2026-04-27 22:53 | 43.11021 | -76.10252 | 418 ft | 13 kts | 267° |
| 2026-04-27 22:53 | 43.11017 | -76.10371 | 416 ft | 12 kts | 267° |
| 2026-04-27 22:53 | 43.11014 | -76.10465 | 419 ft | 8 kts | 267° |
| 2026-04-27 22:53 | 43.11012 | -76.10516 | 421 ft | 3 kts | 268° |
| 2026-04-27 22:54 | 43.11011 | -76.10568 | 425 ft | 8 kts | 268° |
| 2026-04-27 22:54 | 43.11008 | -76.10652 | 427 ft | 8 kts | 268° |
| 2026-04-27 22:54 | 43.11006 | -76.10723 | 427 ft | 7 kts | 268° |
| 2026-04-27 22:54 | 43.11022 | -76.10796 | 420 ft | 12 kts | 314° |
| 2026-04-27 22:55 | 43.11098 | -76.10822 | 421 ft | 10 kts | 356° |
| 2026-04-27 22:55 | 43.11166 | -76.10825 | 422 ft | 9 kts | 357° |
| 2026-04-27 22:55 | 43.11202 | -76.10884 | 423 ft | 8 kts | 278° |
| 2026-04-27 22:55 | 43.11200 | -76.10962 | 427 ft | 8 kts | 265° |
| 2026-04-27 22:56 | 43.11196 | -76.11042 | 427 ft | 8 kts | 272° |
| 2026-04-27 22:56 | 43.11228 | -76.11056 | 422 ft | 4 kts | 346° |
| 2026-04-27 22:56 | 43.11249 | -76.11081 | 422 ft | 4 kts | 315° |
| 2026-04-27 22:56 | 43.11262 | -76.11099 | 423 ft | 0 kts | 314° |